Time;durP1;ratioP1;P1;durP2;ratioP2;P2;SDS_P1;SDS_P2;PMS_P1;PMS_P2;Temp;Humidity;BMP_temperature;BMP_pressure;BME280_temperature;BME280_humidity;BME280_pressure;Samples;Min_cycle;Max_cycle;Signal;HPM_P1;HPM_P2
2023/08/29 00:00:03;;;;;;;8.68;7.88;;;;;;;;;;497813;29;1206;-73
2023/08/29 00:00:18;;;;;;;8.20;7.47;;;;;;;;;;496816;29;1456;-72
2023/08/29 00:00:34;;;;;;;8.23;7.30;;;;;;;;;;501534;29;1325;-72
2023/08/29 00:00:51;;;;;;;8.02;7.28;;;;;;;;;;498153;29;1313;-73
2023/08/29 00:01:06;;;;;;;8.20;7.43;;;;;;;;;;493554;29;1516;-73
2023/08/29 00:01:23;;;;;;;7.90;7.10;;;;;;;;;;494548;29;1172;-72
2023/08/29 00:01:40;;;;;;;7.28;6.60;;;;;;;;;;489415;29;941;-73
2023/08/29 00:01:56;;;;;;;7.15;6.47;;;;;;;;;;489319;29;1009;-73
2023/08/29 00:02:13;;;;;;;7.75;7.03;;;;;;;;;;488600;29;1222;-73
2023/08/29 00:02:32;;;;;;;8.07;7.30;;;;;;;;;;491294;29;1238;-73
2023/08/29 00:02:48;;;;;;;8.10;7.30;;;;;;;;;;499180;29;1623;-73
2023/08/29 00:03:04;;;;;;;8.27;7.47;;;;;;;;;;494440;29;1241;-73
2023/08/29 00:03:19;;;;;;;8.03;7.33;;;;;;;;;;499237;28;1463;-73
2023/08/29 00:03:35;;;;;;;7.93;7.18;;;;;;;;;;499408;29;1300;-73
2023/08/29 00:03:51;;;;;;;7.88;7.15;;;;;;;;;;499853;29;1258;-73
2023/08/29 00:04:09;;;;;;;7.97;7.25;;;;;;;;;;496616;29;1275;-73
2023/08/29 00:04:25;;;;;;;7.93;7.22;;;;;;;;;;493409;29;1338;-74
2023/08/29 00:04:41;;;;;;;7.88;7.18;;;;;;;;;;496306;28;919;-73
2023/08/29 00:04:57;;;;;;;8.13;7.40;;;;;;;;;;494118;29;1298;-72
2023/08/29 00:05:13;;;;;;;8.40;7.60;;;;;;;;;;493520;29;1212;-73
2023/08/29 00:05:28;;;;;;;8.63;7.22;;;;;;;;;;494158;29;1185;-72
2023/08/29 00:05:44;;;;;;;8.53;7.03;;;;;;;;;;493959;29;1072;-73
2023/08/29 00:06:01;;;;;;;7.80;7.05;;;;;;;;;;494484;29;1268;-72
2023/08/29 00:06:17;;;;;;;7.50;6.80;;;;;;;;;;494718;29;1224;-73
2023/08/29 00:06:33;;;;;;;6.80;6.20;;;;;;;;;;495642;29;884;-72
2023/08/29 00:06:48;;;;;;;6.60;6.00;;;;;;;;;;492914;29;1412;-73
2023/08/29 00:07:04;;;;;;;6.77;6.20;;;;;;;;;;494214;29;903;-72
2023/08/29 00:07:20;;;;;;;6.60;6.10;;;;;;;;;;492896;29;1399;-72
2023/08/29 00:07:36;;;;;;;6.63;6.13;;;;;;;;;;495297;29;1347;-73
2023/08/29 00:07:52;;;;;;;6.70;6.20;;;;;;;;;;491899;29;1189;-74
2023/08/29 00:08:08;;;;;;;6.57;6.07;;;;;;;;;;493455;29;1334;-72
2023/08/29 00:08:24;;;;;;;6.70;6.18;;;;;;;;;;491910;29;1970;-73
2023/08/29 00:08:40;;;;;;;6.88;6.28;;;;;;;;;;490919;29;1025;-73
2023/08/29 00:08:55;;;;;;;7.43;6.72;;;;;;;;;;491713;29;992;-73
2023/08/29 00:09:11;;;;;;;7.70;7.00;;;;;;;;;;494194;29;1173;-73
2023/08/29 00:09:27;;;;;;;7.10;6.50;;;;;;;;;;492684;29;1124;-73
2023/08/29 00:09:43;;;;;;;7.20;6.60;;;;;;;;;;493142;29;1210;-72
2023/08/29 00:09:59;;;;;;;6.40;5.90;;;;;;;;;;496468;28;1036;-72
2023/08/29 00:10:15;;;;;;;5.97;5.47;;;;;;;;;;495943;28;1298;-73
2023/08/29 00:10:31;;;;;;;6.43;5.93;;;;;;;;;;494974;29;1286;-73
2023/08/29 00:10:54;;;;;;;7.10;6.50;;;;;;;;;;494386;29;1351;-70
2023/08/29 00:11:10;;;;;;;8.25;7.55;;;;;;;;;;495148;29;1242;-73
2023/08/29 00:11:26;;;;;;;8.48;7.78;;;;;;;;;;493460;29;1171;-73
2023/08/29 00:11:41;;;;;;;8.03;7.37;;;;;;;;;;494319;29;1156;-72
2023/08/29 00:11:57;;;;;;;7.20;6.60;;;;;;;;;;498469;29;1262;-72
2023/08/29 00:12:12;;;;;;;7.10;6.50;;;;;;;;;;491015;29;968;-73
2023/08/29 00:12:28;;;;;;;7.35;6.75;;;;;;;;;;497879;29;1421;-73
2023/08/29 00:12:44;;;;;;;7.50;6.80;;;;;;;;;;495639;29;1182;-73
2023/08/29 00:13:00;;;;;;;7.68;6.97;;;;;;;;;;497652;29;1158;-72
2023/08/29 00:13:16;;;;;;;7.53;6.83;;;;;;;;;;498787;29;1214;-74
2023/08/29 00:13:31;;;;;;;7.43;6.73;;;;;;;;;;497389;29;1190;-73
2023/08/29 00:13:47;;;;;;;6.75;6.22;;;;;;;;;;497905;29;1251;-72
2023/08/29 00:14:05;;;;;;;6.63;6.03;;;;;;;;;;494825;29;1524;-72
2023/08/29 00:14:21;;;;;;;6.93;6.32;;;;;;;;;;498159;29;1590;-72
2023/08/29 00:14:36;;;;;;;6.47;5.97;;;;;;;;;;494997;29;1121;-72
2023/08/29 00:14:52;;;;;;;6.22;5.72;;;;;;;;;;495196;29;926;-73
2023/08/29 00:15:09;;;;;;;6.80;6.20;;;;;;;;;;493941;29;1221;-73
2023/08/29 00:15:25;;;;;;;7.18;6.57;;;;;;;;;;498635;28;1426;-72
2023/08/29 00:15:41;;;;;;;7.45;6.85;;;;;;;;;;498519;28;1205;-73
2023/08/29 00:15:57;;;;;;;7.60;6.90;;;;;;;;;;496721;28;1248;-72
2023/08/29 00:16:16;;;;;;;7.43;6.72;;;;;;;;;;495241;29;1128;-73
2023/08/29 00:16:31;;;;;;;7.47;6.78;;;;;;;;;;493457;29;1344;-73
2023/08/29 00:16:47;;;;;;;7.50;6.80;;;;;;;;;;492487;28;1155;-73
2023/08/29 00:17:04;;;;;;;7.25;6.55;;;;;;;;;;492308;29;960;-72
2023/08/29 00:17:20;;;;;;;7.60;6.90;;;;;;;;;;490599;29;1436;-72
2023/08/29 00:17:36;;;;;;;7.85;7.15;;;;;;;;;;498418;29;1064;-73
2023/08/29 00:17:52;;;;;;;7.50;6.90;;;;;;;;;;499600;29;1361;-73
2023/08/29 00:18:07;;;;;;;7.70;7.00;;;;;;;;;;495980;28;1194;-73
2023/08/29 00:18:23;;;;;;;8.07;7.28;;;;;;;;;;491954;29;1283;-72
2023/08/29 00:18:40;;;;;;;8.07;7.28;;;;;;;;;;491496;29;1400;-73
2023/08/29 00:18:56;;;;;;;8.30;7.50;;;;;;;;;;498741;29;1195;-73
2023/08/29 00:19:14;;;;;;;8.82;7.75;;;;;;;;;;496233;29;1203;-73
2023/08/29 00:19:31;;;;;;;8.30;7.50;;;;;;;;;;497527;29;1256;-72
2023/08/29 00:19:47;;;;;;;7.47;6.88;;;;;;;;;;498077;29;1346;-72
2023/08/29 00:20:03;;;;;;;7.55;6.85;;;;;;;;;;497211;29;1069;-73
2023/08/29 00:20:18;;;;;;;8.07;7.38;;;;;;;;;;499766;29;1084;-72
2023/08/29 00:20:34;;;;;;;7.88;7.28;;;;;;;;;;496685;29;1428;-73
2023/08/29 00:20:51;;;;;;;7.93;7.22;;;;;;;;;;495365;29;1118;-73
2023/08/29 00:21:08;;;;;;;8.10;7.40;;;;;;;;;;497156;28;1216;-72
2023/08/29 00:21:24;;;;;;;7.63;7.03;;;;;;;;;;497670;28;1281;-73
2023/08/29 00:21:39;;;;;;;7.10;6.50;;;;;;;;;;501191;28;1024;-73
2023/08/29 00:21:55;;;;;;;7.30;6.70;;;;;;;;;;497525;29;1096;-73
2023/08/29 00:22:12;;;;;;;7.87;7.07;;;;;;;;;;493290;29;1054;-73
2023/08/29 00:22:29;;;;;;;7.70;6.95;;;;;;;;;;494134;29;1155;-73
2023/08/29 00:22:44;;;;;;;8.20;7.50;;;;;;;;;;496279;29;951;-73
2023/08/29 00:23:00;;;;;;;8.70;7.90;;;;;;;;;;491587;29;1193;-73
2023/08/29 00:23:15;;;;;;;9.00;8.20;;;;;;;;;;489765;29;1287;-72
2023/08/29 00:23:31;;;;;;;8.97;8.17;;;;;;;;;;490069;29;921;-72
2023/08/29 00:23:48;;;;;;;8.43;7.70;;;;;;;;;;490864;29;1115;-72
2023/08/29 00:24:06;;;;;;;8.75;8.05;;;;;;;;;;492009;29;958;-72
2023/08/29 00:24:22;;;;;;;9.00;8.10;;;;;;;;;;492380;29;943;-73
2023/08/29 00:24:37;;;;;;;8.80;7.90;;;;;;;;;;492890;29;940;-73
2023/08/29 00:24:56;;;;;;;8.52;7.82;;;;;;;;;;491932;29;1140;-72
2023/08/29 00:25:12;;;;;;;8.20;7.40;;;;;;;;;;495559;28;1078;-74
2023/08/29 00:25:27;;;;;;;7.90;7.10;;;;;;;;;;493411;29;1056;-72
2023/08/29 00:25:43;;;;;;;8.07;7.38;;;;;;;;;;491973;29;1237;-72
2023/08/29 00:25:58;;;;;;;7.93;7.23;;;;;;;;;;492810;29;1200;-72
2023/08/29 00:26:14;;;;;;;7.97;7.22;;;;;;;;;;490786;29;1127;-73
2023/08/29 00:26:29;;;;;;;8.20;7.40;;;;;;;;;;491827;29;1242;-73
2023/08/29 00:26:45;;;;;;;7.70;7.00;;;;;;;;;;491469;29;1274;-73
2023/08/29 00:27:02;;;;;;;7.70;7.10;;;;;;;;;;491629;29;998;-73
2023/08/29 00:27:19;;;;;;;7.65;7.05;;;;;;;;;;490703;29;987;-72
2023/08/29 00:27:35;;;;;;;7.50;6.80;;;;;;;;;;492965;29;904;-73
2023/08/29 00:27:50;;;;;;;8.30;7.50;;;;;;;;;;493759;29;999;-73
2023/08/29 00:28:07;;;;;;;8.38;7.57;;;;;;;;;;493744;29;1162;-72
2023/08/29 00:28:24;;;;;;;7.97;7.28;;;;;;;;;;495184;28;1943;-73
2023/08/29 00:28:40;;;;;;;7.70;7.00;;;;;;;;;;497900;28;1000;-73
2023/08/29 00:28:56;;;;;;;7.95;7.22;;;;;;;;;;498380;28;954;-72
2023/08/29 00:29:11;;;;;;;8.37;7.60;;;;;;;;;;498203;28;1133;-73
2023/08/29 00:29:27;;;;;;;7.95;7.25;;;;;;;;;;495593;29;1259;-73
2023/08/29 00:29:43;;;;;;;7.80;7.20;;;;;;;;;;494696;29;1299;-72
2023/08/29 00:29:58;;;;;;;8.20;7.50;;;;;;;;;;495211;29;1358;-74
2023/08/29 00:30:15;;;;;;;8.68;7.82;;;;;;;;;;495950;29;1300;-72
2023/08/29 00:30:36;;;;;;;8.77;7.97;;;;;;;;;;494658;28;1075;-72
2023/08/29 00:30:53;;;;;;;8.85;8.07;;;;;;;;;;494690;29;1039;-72
2023/08/29 00:31:08;;;;;;;8.48;7.68;;;;;;;;;;495184;29;1129;-72
2023/08/29 00:31:24;;;;;;;8.65;7.75;;;;;;;;;;495386;28;1343;-72
2023/08/29 00:31:39;;;;;;;8.23;7.50;;;;;;;;;;494121;29;1321;-73
2023/08/29 00:31:55;;;;;;;7.90;7.25;;;;;;;;;;494795;29;1095;-72
2023/08/29 00:32:10;;;;;;;8.10;7.30;;;;;;;;;;492656;29;1234;-73
2023/08/29 00:32:26;;;;;;;7.55;6.75;;;;;;;;;;493817;29;1007;-73
2023/08/29 00:32:41;;;;;;;7.40;6.70;;;;;;;;;;494500;29;1067;-73
2023/08/29 00:32:57;;;;;;;7.83;7.10;;;;;;;;;;493182;29;1068;-73
2023/08/29 00:33:12;;;;;;;7.73;7.10;;;;;;;;;;494771;29;990;-72
2023/08/29 00:33:28;;;;;;;8.15;7.45;;;;;;;;;;494694;29;1459;-73
2023/08/29 00:33:44;;;;;;;8.40;7.60;;;;;;;;;;497059;28;963;-72
2023/08/29 00:33:59;;;;;;;8.37;7.57;;;;;;;;;;497370;28;1287;-73
2023/08/29 00:34:15;;;;;;;7.90;7.20;;;;;;;;;;495611;28;1111;-73
2023/08/29 00:34:30;;;;;;;7.90;7.20;;;;;;;;;;496014;29;1030;-73
2023/08/29 00:34:46;;;;;;;8.05;7.35;;;;;;;;;;493989;29;1226;-73
2023/08/29 00:35:01;;;;;;;7.80;7.10;;;;;;;;;;495213;28;1343;-72
2023/08/29 00:35:17;;;;;;;7.47;6.88;;;;;;;;;;493942;29;955;-73
2023/08/29 00:35:34;;;;;;;7.70;7.03;;;;;;;;;;493021;29;1258;-73
2023/08/29 00:35:49;;;;;;;8.15;7.45;;;;;;;;;;493405;29;1388;-73
2023/08/29 00:36:05;;;;;;;8.68;7.97;;;;;;;;;;493302;29;1151;-73
2023/08/29 00:36:20;;;;;;;8.83;8.13;;;;;;;;;;494633;29;1193;-73
2023/08/29 00:36:37;;;;;;;9.27;8.38;;;;;;;;;;495738;29;984;-73
2023/08/29 00:36:53;;;;;;;9.20;8.30;;;;;;;;;;493267;29;1270;-73
2023/08/29 00:37:08;;;;;;;9.10;8.30;;;;;;;;;;492625;29;1153;-72
2023/08/29 00:37:24;;;;;;;9.32;8.43;;;;;;;;;;493053;28;1126;-72
2023/08/29 00:37:39;;;;;;;8.97;8.10;;;;;;;;;;493700;29;1008;-73
2023/08/29 00:37:55;;;;;;;8.90;8.10;;;;;;;;;;492268;29;1213;-73
2023/08/29 00:38:11;;;;;;;9.07;8.27;;;;;;;;;;491967;29;1060;-72
2023/08/29 00:38:27;;;;;;;9.73;8.85;;;;;;;;;;491908;29;995;-73
2023/08/29 00:38:42;;;;;;;9.97;9.07;;;;;;;;;;490179;29;1037;-73
2023/08/29 00:38:58;;;;;;;9.38;8.57;;;;;;;;;;492249;29;1109;-73
2023/08/29 00:39:15;;;;;;;9.73;8.83;;;;;;;;;;490590;29;1182;-73
2023/08/29 00:39:30;;;;;;;9.82;8.93;;;;;;;;;;491887;29;955;-73
2023/08/29 00:39:47;;;;;;;9.80;9.00;;;;;;;;;;490977;29;1467;-72
2023/08/29 00:40:03;;;;;;;10.02;9.13;;;;;;;;;;493046;29;1015;-72
2023/08/29 00:40:19;;;;;;;10.07;9.18;;;;;;;;;;492226;29;1330;-73
2023/08/29 00:40:36;;;;;;;9.63;8.83;;;;;;;;;;491573;29;1206;-72
2023/08/29 00:40:51;;;;;;;9.43;8.52;;;;;;;;;;492177;29;975;-72
2023/08/29 00:41:10;;;;;;;9.65;8.80;;;;;;;;;;493076;29;1152;-73
2023/08/29 00:41:26;;;;;;;9.52;8.73;;;;;;;;;;493064;29;1100;-73
2023/08/29 00:41:41;;;;;;;9.60;8.80;;;;;;;;;;495111;29;1036;-73
2023/08/29 00:41:59;;;;;;;9.32;8.52;;;;;;;;;;494490;29;1102;-73
2023/08/29 00:42:17;;;;;;;8.20;7.60;;;;;;;;;;496141;28;908;-72
2023/08/29 00:42:33;;;;;;;7.93;7.32;;;;;;;;;;497040;28;1164;-73
2023/08/29 00:42:49;;;;;;;8.97;8.27;;;;;;;;;;496404;28;991;-73
2023/08/29 00:43:04;;;;;;;9.48;8.70;;;;;;;;;;497430;28;983;-73
2023/08/29 00:43:21;;;;;;;9.45;8.65;;;;;;;;;;496111;28;1093;-73
2023/08/29 00:43:37;;;;;;;9.52;8.68;;;;;;;;;;497427;28;1065;-73
2023/08/29 00:43:53;;;;;;;10.10;9.20;;;;;;;;;;494839;29;1895;-73
2023/08/29 00:44:08;;;;;;;10.60;9.70;;;;;;;;;;495139;29;1114;-73
2023/08/29 00:44:24;;;;;;;10.25;9.35;;;;;;;;;;494635;29;1237;-73
2023/08/29 00:44:39;;;;;;;9.93;9.13;;;;;;;;;;492985;29;1265;-73
2023/08/29 00:44:56;;;;;;;9.90;9.00;;;;;;;;;;493214;29;1070;-73
2023/08/29 00:45:12;;;;;;;9.38;8.57;;;;;;;;;;491401;29;1046;-73
2023/08/29 00:45:29;;;;;;;8.93;8.23;;;;;;;;;;490507;29;1406;-71
2023/08/29 00:45:45;;;;;;;9.57;8.73;;;;;;;;;;489549;29;1573;-70
2023/08/29 00:46:00;;;;;;;10.13;9.23;;;;;;;;;;492037;29;1084;-70
2023/08/29 00:46:16;;;;;;;10.70;9.73;;;;;;;;;;488206;29;1099;-70
2023/08/29 00:46:32;;;;;;;10.80;9.80;;;;;;;;;;489692;29;1184;-70
2023/08/29 00:46:47;;;;;;;10.20;9.30;;;;;;;;;;491597;29;1177;-70
2023/08/29 00:47:06;;;;;;;10.20;9.30;;;;;;;;;;493185;29;1158;-70
2023/08/29 00:47:21;;;;;;;10.18;9.30;;;;;;;;;;493941;29;1084;-70
2023/08/29 00:47:37;;;;;;;10.18;9.27;;;;;;;;;;494129;29;984;-70
2023/08/29 00:47:53;;;;;;;10.32;9.43;;;;;;;;;;496773;28;1057;-71
2023/08/29 00:48:09;;;;;;;10.50;9.50;;;;;;;;;;495304;28;1196;-72
2023/08/29 00:48:25;;;;;;;10.30;9.30;;;;;;;;;;496156;28;2011;-72
2023/08/29 00:48:42;;;;;;;10.07;9.18;;;;;;;;;;494358;29;983;-71
2023/08/29 00:48:57;;;;;;;10.20;9.30;;;;;;;;;;493733;29;1318;-71
2023/08/29 00:49:17;;;;;;;10.47;9.57;;;;;;;;;;493020;29;920;-72
2023/08/29 00:49:33;;;;;;;10.43;9.50;;;;;;;;;;492030;29;1090;-72
2023/08/29 00:49:50;;;;;;;9.83;8.97;;;;;;;;;;491396;29;1388;-72
2023/08/29 00:50:09;;;;;;;10.35;9.40;;;;;;;;;;492392;29;982;-72
2023/08/29 00:50:26;;;;;;;10.35;9.43;;;;;;;;;;494799;29;1085;-71
2023/08/29 00:50:41;;;;;;;10.30;9.40;;;;;;;;;;495898;29;1061;-72
2023/08/29 00:50:58;;;;;;;10.48;9.50;;;;;;;;;;493403;29;1184;-71
2023/08/29 00:51:13;;;;;;;10.32;9.35;;;;;;;;;;488859;29;1135;-72
2023/08/29 00:51:29;;;;;;;10.33;9.33;;;;;;;;;;489835;29;1218;-71
2023/08/29 00:51:45;;;;;;;9.98;9.07;;;;;;;;;;491785;29;1113;-72
2023/08/29 00:52:02;;;;;;;10.10;9.20;;;;;;;;;;492512;29;1126;-72
2023/08/29 00:52:18;;;;;;;10.63;9.63;;;;;;;;;;491229;29;1345;-72
2023/08/29 00:52:35;;;;;;;10.60;9.50;;;;;;;;;;492051;29;1075;-72
2023/08/29 00:52:54;;;;;;;10.60;9.60;;;;;;;;;;495315;29;1593;-72
2023/08/29 00:53:11;;;;;;;10.65;9.68;;;;;;;;;;495121;29;1800;-72
2023/08/29 00:53:27;;;;;;;10.88;9.88;;;;;;;;;;494877;29;1248;-72
2023/08/29 00:53:42;;;;;;;10.68;9.70;;;;;;;;;;494126;29;1074;-72
2023/08/29 00:54:01;;;;;;;10.95;9.85;;;;;;;;;;494564;29;1140;-72
2023/08/29 00:54:18;;;;;;;10.85;9.75;;;;;;;;;;494106;29;1003;-71
2023/08/29 00:54:34;;;;;;;9.93;9.02;;;;;;;;;;493711;29;1032;-72
2023/08/29 00:54:50;;;;;;;9.93;8.93;;;;;;;;;;494219;29;1536;-71
2023/08/29 00:55:06;;;;;;;10.05;9.15;;;;;;;;;;493661;29;1183;-71
2023/08/29 00:55:21;;;;;;;10.45;9.55;;;;;;;;;;495172;29;1136;-71
2023/08/29 00:55:37;;;;;;;10.23;9.32;;;;;;;;;;497015;29;984;-72
2023/08/29 00:55:53;;;;;;;10.13;9.23;;;;;;;;;;495926;29;1018;-71
2023/08/29 00:56:09;;;;;;;10.10;9.20;;;;;;;;;;496556;28;1348;-71
2023/08/29 00:56:25;;;;;;;8.90;8.18;;;;;;;;;;495541;29;1027;-71
2023/08/29 00:56:42;;;;;;;8.80;8.00;;;;;;;;;;494209;29;1058;-71
2023/08/29 00:56:58;;;;;;;9.18;8.32;;;;;;;;;;498036;28;1256;-71
2023/08/29 00:57:14;;;;;;;9.73;8.90;;;;;;;;;;497605;28;1308;-71
2023/08/29 00:57:29;;;;;;;10.35;9.43;;;;;;;;;;496763;28;1153;-71
2023/08/29 00:57:45;;;;;;;10.13;9.18;;;;;;;;;;492799;29;1054;-71
2023/08/29 00:58:04;;;;;;;10.17;9.27;;;;;;;;;;493081;29;955;-71
2023/08/29 00:58:19;;;;;;;10.70;9.70;;;;;;;;;;492458;29;1185;-71
2023/08/29 00:58:35;;;;;;;10.93;9.80;;;;;;;;;;493863;29;1015;-72
2023/08/29 00:58:52;;;;;;;10.10;9.10;;;;;;;;;;495996;29;1079;-71
2023/08/29 00:59:07;;;;;;;9.48;8.57;;;;;;;;;;496564;29;911;-72
2023/08/29 00:59:23;;;;;;;9.55;8.68;;;;;;;;;;496302;29;1066;-72
2023/08/29 00:59:38;;;;;;;9.33;8.47;;;;;;;;;;495222;29;1063;-72
2023/08/29 00:59:54;;;;;;;9.00;8.20;;;;;;;;;;496652;29;1169;-73
2023/08/29 01:00:11;;;;;;;9.10;8.30;;;;;;;;;;497551;29;1802;-69
2023/08/29 01:00:28;;;;;;;9.35;8.55;;;;;;;;;;491632;29;1528;-72
2023/08/29 01:00:45;;;;;;;9.50;8.70;;;;;;;;;;493813;29;1269;-72
2023/08/29 01:01:01;;;;;;;9.55;8.75;;;;;;;;;;492731;29;1043;-72
2023/08/29 01:01:17;;;;;;;9.85;8.85;;;;;;;;;;493321;29;965;-71
2023/08/29 01:01:34;;;;;;;9.68;8.10;;;;;;;;;;495537;29;1189;-72
2023/08/29 01:01:50;;;;;;;9.05;8.25;;;;;;;;;;496487;29;1307;-71
2023/08/29 01:02:06;;;;;;;9.53;8.70;;;;;;;;;;495306;29;1181;-72
2023/08/29 01:02:21;;;;;;;9.43;8.52;;;;;;;;;;493221;29;1268;-72
2023/08/29 01:02:37;;;;;;;9.82;8.93;;;;;;;;;;501202;23;1714;-72
2023/08/29 01:02:53;;;;;;;10.47;9.37;;;;;;;;;;475406;29;2051;-72
2023/08/29 01:03:09;;;;;;;10.60;9.50;;;;;;;;;;475996;29;1143;-72
2023/08/29 01:03:24;;;;;;;10.43;9.50;;;;;;;;;;473429;29;987;-69
2023/08/29 01:03:40;;;;;;;9.90;9.10;;;;;;;;;;476182;28;1208;-69
2023/08/29 01:03:55;;;;;;;9.35;8.55;;;;;;;;;;474295;28;1087;-69
2023/08/29 01:04:10;;;;;;;9.27;8.40;;;;;;;;;;477784;28;1212;-69
2023/08/29 01:04:27;;;;;;;9.73;8.82;;;;;;;;;;488678;28;1308;-69
2023/08/29 01:04:43;;;;;;;10.23;9.27;;;;;;;;;;498133;28;1395;-69
2023/08/29 01:04:58;;;;;;;10.20;9.30;;;;;;;;;;497865;28;1221;-69
2023/08/29 01:05:14;;;;;;;10.32;9.43;;;;;;;;;;487753;28;1380;-68
2023/08/29 01:05:29;;;;;;;10.33;9.43;;;;;;;;;;495590;28;1468;-69
2023/08/29 01:05:46;;;;;;;10.90;9.90;;;;;;;;;;500098;28;1528;-68
2023/08/29 01:06:03;;;;;;;11.32;10.25;;;;;;;;;;498451;28;1197;-70
2023/08/29 01:06:19;;;;;;;11.45;10.45;;;;;;;;;;487157;28;1216;-69
2023/08/29 01:06:35;;;;;;;11.70;10.60;;;;;;;;;;495711;28;1291;-69
2023/08/29 01:06:55;;;;;;;11.23;10.13;;;;;;;;;;494869;28;1333;-68
2023/08/29 01:07:12;;;;;;;11.60;10.55;;;;;;;;;;489106;28;1461;-69
2023/08/29 01:07:27;;;;;;;11.60;10.50;;;;;;;;;;489248;29;1260;-69
2023/08/29 01:07:43;;;;;;;11.30;10.20;;;;;;;;;;489790;29;1058;-69
2023/08/29 01:08:00;;;;;;;11.10;9.98;;;;;;;;;;492752;28;1138;-68
2023/08/29 01:08:15;;;;;;;11.18;10.15;;;;;;;;;;483410;29;2025;-69
2023/08/29 01:08:32;;;;;;;11.30;10.30;;;;;;;;;;490530;29;931;-70
2023/08/29 01:08:47;;;;;;;11.93;10.82;;;;;;;;;;492496;29;1355;-69
2023/08/29 01:09:06;;;;;;;12.15;11.10;;;;;;;;;;489537;29;1186;-69
2023/08/29 01:09:21;;;;;;;12.10;11.02;;;;;;;;;;485462;28;1454;-69
2023/08/29 01:09:38;;;;;;;11.65;10.65;;;;;;;;;;493008;28;1234;-69
2023/08/29 01:09:54;;;;;;;11.75;10.65;;;;;;;;;;493659;28;1295;-69
2023/08/29 01:10:10;;;;;;;12.00;10.80;;;;;;;;;;490827;28;1173;-69
2023/08/29 01:10:35;;;;;;;11.88;10.82;;;;;;;;;;488481;28;1491;-69
2023/08/29 01:11:03;;;;;;;11.40;10.40;;;;;;;;;;492761;28;1298;-69
2023/08/29 01:11:21;;;;;;;10.70;9.80;;;;;;;;;;482617;29;1498;-68
2023/08/29 01:11:45;;;;;;;9.48;8.68;;;;;;;;;;492331;29;1064;-69
2023/08/29 01:12:16;;;;;;;9.95;9.10;;;;;;;;;;496209;28;990;-68
2023/08/29 01:12:53;;;;;;;11.90;10.88;;;;;;;;;;495446;28;1672;-69
2023/08/29 01:13:23;;;;;;;9.48;8.68;;;;;;;;;;492104;28;1015;-69
2023/08/29 01:13:50;;;;;;;10.57;9.68;;;;;;;;;;492989;28;1332;-69
2023/08/29 01:14:25;;;;;;;9.57;8.80;;;;;;;;;;491392;28;1021;-69
2023/08/29 01:15:01;;;;;;;8.75;8.00;;;;;;;;;;491644;29;1089;-69
2023/08/29 01:15:21;;;;;;;10.20;9.32;;;;;;;;;;486421;29;1221;-68
2023/08/29 01:15:38;;;;;;;9.75;8.90;;;;;;;;;;494417;28;1273;-68
2023/08/29 01:15:58;;;;;;;9.43;8.60;;;;;;;;;;492919;28;1126;-69
2023/08/29 01:16:18;;;;;;;10.05;9.18;;;;;;;;;;488257;28;1061;-69
2023/08/29 01:16:41;;;;;;;10.43;9.52;;;;;;;;;;494281;28;1053;-69
2023/08/29 01:17:07;;;;;;;10.80;9.90;;;;;;;;;;494655;28;1204;-69
2023/08/29 01:17:51;;;;;;;9.98;9.18;;;;;;;;;;483805;29;1079;-69
2023/08/29 01:18:09;;;;;;;9.77;8.80;;;;;;;;;;486470;29;1107;-69
2023/08/29 01:18:27;;;;;;;10.05;9.05;;;;;;;;;;483988;29;1379;-69
2023/08/29 01:18:44;;;;;;;10.15;9.25;;;;;;;;;;488767;29;1266;-70
2023/08/29 01:19:06;;;;;;;10.00;9.07;;;;;;;;;;488143;29;1230;-69
2023/08/29 01:19:25;;;;;;;10.20;9.10;;;;;;;;;;482953;29;1246;-69
2023/08/29 01:19:48;;;;;;;10.25;9.25;;;;;;;;;;489849;29;1036;-69
2023/08/29 01:20:05;;;;;;;10.57;9.57;;;;;;;;;;488819;29;1184;-68
2023/08/29 01:20:22;;;;;;;10.05;9.15;;;;;;;;;;485584;28;1453;-69
2023/08/29 01:20:39;;;;;;;9.60;8.73;;;;;;;;;;491356;28;1372;-69
2023/08/29 01:21:26;;;;;;;9.73;8.93;;;;;;;;;;492333;29;1045;-69
2023/08/29 01:22:08;;;;;;;9.80;8.90;;;;;;;;;;484124;29;1374;-69
2023/08/29 01:22:52;;;;;;;10.70;9.60;;;;;;;;;;480769;29;1410;-69
2023/08/29 01:23:29;;;;;;;9.10;8.38;;;;;;;;;;485414;29;2013;-69
2023/08/29 01:24:04;;;;;;;8.57;7.78;;;;;;;;;;490499;29;1282;-69
2023/08/29 01:24:48;;;;;;;9.50;8.68;;;;;;;;;;484241;28;1083;-69
2023/08/29 01:25:25;;;;;;;10.13;9.23;;;;;;;;;;493768;28;1203;-69
2023/08/29 01:26:11;;;;;;;10.40;9.45;;;;;;;;;;493496;28;1092;-69
2023/08/29 01:26:28;;;;;;;10.25;9.35;;;;;;;;;;490100;28;1274;-68
2023/08/29 01:26:47;;;;;;;9.55;8.75;;;;;;;;;;494576;28;983;-69
2023/08/29 01:27:04;;;;;;;9.77;8.93;;;;;;;;;;494848;28;1340;-69
2023/08/29 01:27:20;;;;;;;10.82;9.80;;;;;;;;;;484957;28;1308;-69
2023/08/29 01:27:37;;;;;;;10.18;9.27;;;;;;;;;;490907;29;1831;-68
2023/08/29 01:27:54;;;;;;;9.25;8.50;;;;;;;;;;489123;29;1291;-69
2023/08/29 01:28:09;;;;;;;8.80;8.10;;;;;;;;;;486038;29;1003;-68
2023/08/29 01:28:26;;;;;;;9.00;8.30;;;;;;;;;;485289;29;2055;-69
2023/08/29 01:28:44;;;;;;;9.55;8.75;;;;;;;;;;488917;29;966;-69
2023/08/29 01:29:03;;;;;;;9.50;8.70;;;;;;;;;;489805;29;1151;-68
2023/08/29 01:29:21;;;;;;;9.77;8.88;;;;;;;;;;476933;29;1341;-69
2023/08/29 01:29:37;;;;;;;10.32;9.32;;;;;;;;;;485077;29;1475;-68
2023/08/29 01:29:53;;;;;;;10.07;9.20;;;;;;;;;;483561;29;1038;-69
2023/08/29 01:30:10;;;;;;;10.18;9.27;;;;;;;;;;483870;29;1152;-69
2023/08/29 01:30:26;;;;;;;10.55;9.55;;;;;;;;;;483565;29;1180;-69
2023/08/29 01:30:43;;;;;;;10.38;9.48;;;;;;;;;;487172;29;1215;-68
2023/08/29 01:30:59;;;;;;;10.50;9.70;;;;;;;;;;488619;29;1028;-68
2023/08/29 01:31:15;;;;;;;10.57;9.68;;;;;;;;;;484750;29;1122;-68
2023/08/29 01:31:32;;;;;;;9.90;9.10;;;;;;;;;;489327;29;1299;-68
2023/08/29 01:31:49;;;;;;;9.80;9.00;;;;;;;;;;488614;29;1239;-68
2023/08/29 01:32:05;;;;;;;10.20;9.30;;;;;;;;;;489533;29;1099;-68
2023/08/29 01:32:21;;;;;;;10.18;9.27;;;;;;;;;;484531;29;1442;-68
2023/08/29 01:32:37;;;;;;;10.00;9.10;;;;;;;;;;491771;29;1048;-68
2023/08/29 01:32:54;;;;;;;9.82;8.93;;;;;;;;;;490646;29;1138;-68
2023/08/29 01:33:10;;;;;;;10.07;9.07;;;;;;;;;;487079;29;1305;-69
2023/08/29 01:33:27;;;;;;;10.10;9.10;;;;;;;;;;485258;29;1349;-68
2023/08/29 01:33:44;;;;;;;9.13;8.32;;;;;;;;;;491726;29;1425;-69
2023/08/29 01:34:00;;;;;;;9.45;8.65;;;;;;;;;;492033;29;1123;-68
2023/08/29 01:34:16;;;;;;;10.55;9.65;;;;;;;;;;485579;29;1132;-69
2023/08/29 01:34:32;;;;;;;10.35;9.43;;;;;;;;;;490583;29;1296;-69
2023/08/29 01:34:50;;;;;;;10.00;9.10;;;;;;;;;;488874;29;923;-69
2023/08/29 01:35:07;;;;;;;10.10;9.20;;;;;;;;;;486505;29;1471;-68
2023/08/29 01:35:22;;;;;;;9.82;8.93;;;;;;;;;;481948;29;1254;-69
2023/08/29 01:35:46;;;;;;;9.98;9.07;;;;;;;;;;489006;29;1351;-69
2023/08/29 01:36:03;;;;;;;9.93;8.93;;;;;;;;;;484268;29;1305;-68
2023/08/29 01:36:18;;;;;;;9.48;8.57;;;;;;;;;;473913;29;1335;-68
2023/08/29 01:36:41;;;;;;;9.23;8.43;;;;;;;;;;471347;29;1221;-69
2023/08/29 01:36:58;;;;;;;8.65;7.95;;;;;;;;;;470195;29;1159;-70
2023/08/29 01:37:13;;;;;;;8.50;7.80;;;;;;;;;;467944;29;1132;-68
2023/08/29 01:37:28;;;;;;;8.60;7.80;;;;;;;;;;470532;29;1091;-69
2023/08/29 01:37:44;;;;;;;9.00;8.25;;;;;;;;;;472666;29;1167;-69
2023/08/29 01:37:59;;;;;;;9.90;9.10;;;;;;;;;;474041;29;1144;-69
2023/08/29 01:38:18;;;;;;;9.90;9.10;;;;;;;;;;473672;29;1153;-69
2023/08/29 01:38:33;;;;;;;9.93;9.02;;;;;;;;;;473446;29;925;-69
2023/08/29 01:38:49;;;;;;;9.40;8.60;;;;;;;;;;477059;28;1349;-70
2023/08/29 01:39:04;;;;;;;9.43;8.63;;;;;;;;;;480457;28;1315;-69
2023/08/29 01:39:19;;;;;;;9.50;8.70;;;;;;;;;;474437;28;991;-69
2023/08/29 01:39:37;;;;;;;9.07;8.33;;;;;;;;;;473451;29;1121;-69
2023/08/29 01:39:52;;;;;;;8.85;8.05;;;;;;;;;;472550;29;1177;-69
2023/08/29 01:40:08;;;;;;;9.13;8.23;;;;;;;;;;471489;29;1163;-69
2023/08/29 01:40:23;;;;;;;10.25;9.27;;;;;;;;;;468402;29;1207;-69
2023/08/29 01:40:39;;;;;;;10.83;9.90;;;;;;;;;;468407;29;1397;-69
2023/08/29 01:40:54;;;;;;;10.02;9.23;;;;;;;;;;469100;29;1290;-68
2023/08/29 01:41:09;;;;;;;9.40;8.60;;;;;;;;;;468405;29;1175;-68
2023/08/29 01:41:25;;;;;;;9.98;9.07;;;;;;;;;;469713;29;1426;-69
2023/08/29 01:41:40;;;;;;;10.20;9.30;;;;;;;;;;469109;29;1174;-69
2023/08/29 01:41:55;;;;;;;9.60;8.80;;;;;;;;;;470274;29;1139;-69
2023/08/29 01:42:11;;;;;;;9.35;8.55;;;;;;;;;;469939;29;957;-68
2023/08/29 01:42:27;;;;;;;9.33;8.53;;;;;;;;;;469844;29;1025;-69
2023/08/29 01:42:43;;;;;;;9.82;9.02;;;;;;;;;;468701;29;1234;-68
2023/08/29 01:42:59;;;;;;;9.90;9.10;;;;;;;;;;469415;29;1285;-69
2023/08/29 01:43:15;;;;;;;9.50;8.70;;;;;;;;;;469286;29;1042;-68
2023/08/29 01:43:30;;;;;;;9.55;8.75;;;;;;;;;;471018;29;1053;-69
2023/08/29 01:43:45;;;;;;;9.87;9.03;;;;;;;;;;471456;29;1201;-68
2023/08/29 01:44:04;;;;;;;9.37;8.57;;;;;;;;;;473016;29;1265;-69
2023/08/29 01:44:20;;;;;;;9.57;8.68;;;;;;;;;;475559;28;1330;-69
2023/08/29 01:44:35;;;;;;;9.73;8.83;;;;;;;;;;476362;28;1149;-69
2023/08/29 01:44:51;;;;;;;9.53;8.60;;;;;;;;;;474472;29;1137;-69
2023/08/29 01:45:07;;;;;;;10.07;9.07;;;;;;;;;;475435;28;1371;-69
2023/08/29 01:45:22;;;;;;;10.35;9.40;;;;;;;;;;475323;28;916;-69
2023/08/29 01:45:38;;;;;;;9.97;9.07;;;;;;;;;;472212;29;1268;-69
2023/08/29 01:45:53;;;;;;;9.45;8.65;;;;;;;;;;471388;29;1239;-69
2023/08/29 01:46:08;;;;;;;8.90;8.20;;;;;;;;;;471197;29;1057;-68
2023/08/29 01:46:24;;;;;;;9.20;8.40;;;;;;;;;;471303;29;876;-68
2023/08/29 01:46:39;;;;;;;9.13;8.32;;;;;;;;;;472092;29;1090;-69